Virtual LH

Virtual LH. There's no better way to fly
Since 2013.



AIRPORT MAP

METAR AND TAF INFORMATION

METAR FOR LIPE
ADDS - METARS form results

(2059 UTC 19 March 2019)
Data provider http://aviationweather.gov/metar/data/
 
METAR text: LIPE 192050Z 26004KT CAVOK 06/M00 Q1026
Conditions at: LIPE (BOLOGNA/BORGO (A, IT) observed 2050 UTC 19 March 2019
Temperature: 6.0°C (43°F)
Dewpoint: 0.0°C (32°F) [RH = 65%]
Pressure (altimeter): 30.30 inches Hg (1026.0 mb)
Winds: from the W (260 degrees) at 5 MPH (4 knots; 2.1 m/s)
Visibility: 6 or more miles (10+ km)
Ceiling: ceiling and visibility are OK
Clouds: unknown
Weather: no significant weather observed at this time

METAR text: LIPE 192020Z VRB02KT CAVOK 06/M00 Q1026
Conditions at: LIPE (BOLOGNA/BORGO (A, IT) observed 2020 UTC 19 March 2019
Temperature: 6.0°C (43°F)
Dewpoint: 0.0°C (32°F) [RH = 65%]
Pressure (altimeter): 30.30 inches Hg (1026.0 mb)
Winds: variable direction winds at 2 MPH (2 knots; 1.0 m/s)
Visibility: 6 or more miles (10+ km)
Ceiling: ceiling and visibility are OK
Clouds: unknown
Weather: no significant weather observed at this time

Forecast for: LIPE (BOLOGNA/BORGO (A, IT)
Text: TAF LIPE 191700Z 1918/2018 06008KT 9999 SCT050
Forecast period: 1800 UTC 19 March 2019 to 1800 UTC 20 March 2019
Forecast type: FROM: standard forecast or significant change
Winds: from the ENE (60 degrees) at 9 MPH (8 knots; 4.1 m/s)
Visibility: 6 or more miles 10+ km)
Ceiling: at least 12,000 feet AGL
Clouds: scattered clouds at 5000 feet AGL
Weather: no significant weather forecast for this period

RUNWAY INFORMATION

Runway 12 Runway length 9186 ft Runway width 150 ft
Runway elevation 120 ft Runway displaced threshold 1007 ft Runway heading 117
Runway 30 Runway length 9186 ft Runway width 150 ft
Runway elevation 120 ft Runway displaced threshold 1188 ft Runway heading 297

AIRPORT FREQUENCIES

Type APP Name APP Frequency 120.1 MHZ
Type ATIS Name ATIS Frequency 134.875 MHZ
Type GND Name GND Frequency 129.925 MHZ
Type TWR Name TWR Frequency 120.8 MHZ

AIRPORT NEAR NAVIGATION AIDS

Type VOR-DME Name Bologna Frequency 112200 KHZ
Type NDB Name Bologna Frequency 413 KHZ